createdAt,value
2022-08-25T00:00:43.814Z,38.64
2022-08-25T00:01:49.374Z,38.60
2022-08-25T00:02:55.613Z,38.92
2022-08-25T00:03:58.426Z,38.75
2022-08-25T00:05:00.015Z,38.93
2022-08-25T00:06:04.461Z,39.00
2022-08-25T00:07:06.494Z,39.02
2022-08-25T00:08:08.042Z,39.11
2022-08-25T00:09:09.918Z,39.52
2022-08-25T00:10:11.413Z,39.24
2022-08-25T00:11:17.096Z,38.93
2022-08-25T00:12:18.602Z,39.16
2022-08-25T00:13:20.174Z,39.09
2022-08-25T00:14:26.750Z,39.10
2022-08-25T00:15:28.847Z,39.24
2022-08-25T00:16:31.616Z,39.15
2022-08-25T00:17:33.117Z,39.26
2022-08-25T00:18:34.629Z,39.33
2022-08-25T00:19:36.507Z,39.38
2022-08-25T00:20:38.054Z,39.32
2022-08-25T00:21:45.157Z,39.31
2022-08-25T00:22:46.627Z,39.27
2022-08-25T00:23:48.162Z,39.45
2022-08-25T00:24:49.747Z,39.38
2022-08-25T00:25:51.325Z,39.52
2022-08-25T00:26:54.945Z,39.60
2022-08-25T00:27:57.123Z,39.55
2022-08-25T00:29:01.282Z,39.58
2022-08-25T00:30:04.492Z,39.85
2022-08-25T00:31:06.962Z,39.84
2022-08-25T00:32:08.544Z,39.75
2022-08-25T00:33:10.278Z,39.86
2022-08-25T00:34:13.276Z,39.95
2022-08-25T00:35:15.538Z,39.82
2022-08-25T00:36:19.101Z,39.75
2022-08-25T00:37:20.613Z,39.74
2022-08-25T00:38:22.197Z,39.65
2022-08-25T00:39:23.886Z,39.66
2022-08-25T00:40:25.762Z,39.74
2022-08-25T00:41:27.303Z,39.56
2022-08-25T00:42:28.843Z,39.71
2022-08-25T00:43:32.827Z,39.76
2022-08-25T00:44:35.381Z,39.84
2022-08-25T00:45:37.363Z,39.86
2022-08-25T00:46:43.336Z,39.83
2022-08-25T00:47:44.920Z,39.84
2022-08-25T00:48:47.423Z,39.91
2022-08-25T00:49:53.249Z,40.00
2022-08-25T00:50:54.759Z,39.82
2022-08-25T00:51:56.249Z,39.99
2022-08-25T00:52:58.860Z,40.08
2022-08-25T00:54:00.771Z,40.01
2022-08-25T00:55:08.127Z,40.15
2022-08-25T00:56:10.410Z,40.20
2022-08-25T00:57:12.931Z,40.16
2022-08-25T00:58:21.310Z,40.15
2022-08-25T00:59:22.890Z,40.35
2022-08-25T01:00:31.707Z,40.22
2022-08-25T01:01:33.396Z,40.26
2022-08-25T01:02:34.949Z,40.28
2022-08-25T01:03:36.539Z,40.60
2022-08-25T01:04:38.055Z,40.45
2022-08-25T01:05:40.888Z,40.30
2022-08-25T01:06:44.432Z,40.45
2022-08-25T01:07:46.070Z,40.35
2022-08-25T01:08:47.575Z,40.42
2022-08-25T01:09:49.324Z,40.44
2022-08-25T01:10:50.920Z,40.57
2022-08-25T01:11:52.916Z,40.77
2022-08-25T01:12:55.103Z,40.73
2022-08-25T01:13:56.668Z,40.64
2022-08-25T01:14:58.170Z,40.82
2022-08-25T01:15:59.953Z,40.70
2022-08-25T01:17:01.526Z,40.75
2022-08-25T01:18:03.119Z,40.80
2022-08-25T01:19:05.351Z,40.70
2022-08-25T01:20:07.246Z,40.91
2022-08-25T01:21:08.750Z,40.98
2022-08-25T01:22:12.409Z,40.90
2022-08-25T01:23:14.225Z,40.88
2022-08-25T01:24:28.784Z,40.84
2022-08-25T01:25:39.307Z,41.07
2022-08-25T01:26:40.869Z,41.09
2022-08-25T01:27:42.359Z,40.94
2022-08-25T01:29:04.355Z,40.79
2022-08-25T01:30:06.226Z,41.16
2022-08-25T01:31:24.158Z,40.97
2022-08-25T01:32:25.930Z,41.03
2022-08-25T01:33:27.484Z,41.04
2022-08-25T01:34:30.039Z,41.10
2022-08-25T01:35:33.191Z,41.06
2022-08-25T01:36:35.562Z,41.16
2022-08-25T01:37:37.167Z,41.19
2022-08-25T01:38:38.674Z,41.38
2022-08-25T01:39:40.191Z,41.47
2022-08-25T01:40:42.718Z,41.70
2022-08-25T01:42:07.060Z,41.60
2022-08-25T01:43:14.575Z,41.56
2022-08-25T01:44:16.756Z,41.67
2022-08-25T01:45:18.816Z,41.69
2022-08-25T01:46:20.402Z,41.59
2022-08-25T01:47:21.971Z,41.85
2022-08-25T01:48:23.474Z,41.90
2022-08-25T01:49:24.999Z,42.08
2022-08-25T01:50:26.525Z,42.01
2022-08-25T01:51:28.903Z,42.15
2022-08-25T01:52:34.510Z,42.18
2022-08-25T01:53:36.021Z,42.08
2022-08-25T01:54:37.610Z,42.17
2022-08-25T01:55:55.770Z,42.02
2022-08-25T01:56:57.924Z,41.97
2022-08-25T01:57:59.477Z,41.93
2022-08-25T01:59:01.035Z,42.33
2022-08-25T02:00:02.878Z,42.18
2022-08-25T02:01:15.767Z,42.28
2022-08-25T02:02:18.409Z,42.37
2022-08-25T02:03:20.269Z,42.38
2022-08-25T02:04:22.208Z,42.40
2022-08-25T02:05:24.007Z,42.59
2022-08-25T02:06:30.260Z,42.61
2022-08-25T02:07:32.006Z,42.42
2022-08-25T02:08:33.543Z,42.50
2022-08-25T02:09:35.351Z,42.55
2022-08-25T02:10:36.926Z,42.46
2022-08-25T02:11:38.982Z,42.62
2022-08-25T02:12:41.011Z,42.67
2022-08-25T02:13:42.519Z,42.70
2022-08-25T02:14:44.025Z,42.95
2022-08-25T02:15:46.270Z,42.75
2022-08-25T02:16:48.929Z,42.83
2022-08-25T02:17:50.539Z,42.99
2022-08-25T02:18:53.035Z,42.81
2022-08-25T02:19:57.003Z,42.92
2022-08-25T02:20:58.550Z,42.97
2022-08-25T02:22:00.131Z,42.81
2022-08-25T02:23:01.657Z,42.90
2022-08-25T02:24:03.432Z,42.84
2022-08-25T02:25:05.797Z,43.01
2022-08-25T02:26:07.693Z,43.06
2022-08-25T02:27:10.591Z,43.05
2022-08-25T02:28:12.799Z,43.08
2022-08-25T02:29:14.411Z,43.29
2022-08-25T02:30:16.019Z,43.03
2022-08-25T02:31:18.370Z,43.07
2022-08-25T02:32:19.882Z,43.14
2022-08-25T02:33:22.387Z,43.18
2022-08-25T02:34:23.952Z,43.15
2022-08-25T02:35:25.467Z,43.11
2022-08-25T02:36:26.961Z,43.28
2022-08-25T02:37:28.491Z,43.41
2022-08-25T02:38:29.974Z,43.54
2022-08-25T02:39:31.486Z,43.49
2022-08-25T02:40:33.059Z,43.41
2022-08-25T02:41:35.022Z,43.51
2022-08-25T02:42:36.550Z,43.55
2022-08-25T02:43:38.966Z,43.52
2022-08-25T02:44:41.139Z,43.79
2022-08-25T02:45:42.721Z,43.74
2022-08-25T02:46:44.287Z,43.88
2022-08-25T02:47:45.795Z,43.95
2022-08-25T02:48:47.530Z,43.84
2022-08-25T02:49:49.048Z,43.92
2022-08-25T02:50:53.759Z,44.13
2022-08-25T02:51:55.382Z,43.90
2022-08-25T02:52:57.198Z,44.13
2022-08-25T02:53:59.070Z,44.16
2022-08-25T02:55:00.853Z,44.38
2022-08-25T02:56:02.655Z,44.32
2022-08-25T02:57:04.383Z,44.29
2022-08-25T02:58:06.236Z,44.26
2022-08-25T02:59:07.842Z,44.54
2022-08-25T03:00:10.014Z,44.65
2022-08-25T03:01:14.573Z,44.73
2022-08-25T03:02:16.754Z,44.59
2022-08-25T03:03:18.575Z,44.67
2022-08-25T03:04:20.275Z,44.78
2022-08-25T03:05:22.193Z,44.66
2022-08-25T03:06:24.115Z,44.80
2022-08-25T03:07:25.915Z,44.69
2022-08-25T03:08:27.405Z,44.83
2022-08-25T03:09:28.989Z,44.85
2022-08-25T03:10:31.716Z,44.92
2022-08-25T03:11:33.283Z,44.89
2022-08-25T03:12:35.513Z,44.72
2022-08-25T03:13:37.254Z,44.74
2022-08-25T03:14:39.235Z,44.96
2022-08-25T03:15:42.629Z,44.88
2022-08-25T03:16:46.321Z,44.96
2022-08-25T03:17:50.649Z,44.84
2022-08-25T03:18:52.327Z,44.92
2022-08-25T03:19:53.942Z,44.95
2022-08-25T03:20:55.427Z,44.75
2022-08-25T03:21:57.530Z,44.84
2022-08-25T03:22:59.123Z,44.84
2022-08-25T03:24:00.618Z,44.98
2022-08-25T03:25:24.033Z,44.84
2022-08-25T03:26:44.779Z,44.88
2022-08-25T03:27:46.334Z,44.91
2022-08-25T03:28:47.879Z,44.72
2022-08-25T03:29:50.037Z,45.01
2022-08-25T03:30:55.804Z,45.03
2022-08-25T03:31:58.968Z,45.05
2022-08-25T03:33:00.583Z,44.91
2022-08-25T03:34:02.115Z,44.95
2022-08-25T03:35:03.655Z,45.04
2022-08-25T03:36:05.599Z,44.91
2022-08-25T03:37:08.532Z,45.02
2022-08-25T03:38:10.027Z,44.89
2022-08-25T03:39:11.613Z,45.04
2022-08-25T03:40:15.480Z,45.27
2022-08-25T03:41:21.200Z,45.20
2022-08-25T03:42:22.814Z,45.21
2022-08-25T03:43:24.344Z,45.11
2022-08-25T03:44:25.854Z,45.09
2022-08-25T03:45:27.476Z,45.20
2022-08-25T03:46:30.182Z,45.31
2022-08-25T03:47:31.722Z,45.45
2022-08-25T03:48:33.270Z,45.35
2022-08-25T03:49:34.775Z,45.48
2022-08-25T03:50:36.427Z,45.35
2022-08-25T03:51:40.442Z,45.41
2022-08-25T03:52:42.854Z,45.44
2022-08-25T03:53:44.433Z,45.42
2022-08-25T03:54:45.912Z,45.50
2022-08-25T03:55:47.572Z,45.47
2022-08-25T03:56:49.087Z,45.43
2022-08-25T03:57:51.137Z,45.47
2022-08-25T03:58:52.777Z,45.65
2022-08-25T03:59:54.253Z,45.51
2022-08-25T04:00:56.796Z,45.48
2022-08-25T04:01:58.641Z,45.62
2022-08-25T04:03:00.179Z,45.77
2022-08-25T04:04:01.830Z,45.50
2022-08-25T04:05:03.614Z,45.93
2022-08-25T04:06:05.700Z,46.00
2022-08-25T04:07:07.757Z,45.77
2022-08-25T04:08:09.332Z,45.87
2022-08-25T04:09:11.443Z,45.82
2022-08-25T04:10:12.967Z,45.93
2022-08-25T04:11:15.871Z,46.08
2022-08-25T04:12:17.347Z,46.22
2022-08-25T04:13:20.721Z,46.17
2022-08-25T04:14:23.409Z,46.21
2022-08-25T04:15:28.585Z,46.35
2022-08-25T04:16:32.413Z,46.40
2022-08-25T04:17:34.018Z,46.27
2022-08-25T04:18:35.997Z,46.48
2022-08-25T04:19:38.283Z,46.72
2022-08-25T04:20:44.642Z,46.60
2022-08-25T04:21:48.265Z,46.37
2022-08-25T04:22:49.749Z,46.31
2022-08-25T04:23:51.417Z,46.34
2022-08-25T04:24:52.925Z,46.19
2022-08-25T04:25:54.404Z,46.24
2022-08-25T04:26:56.354Z,46.17
2022-08-25T04:27:57.899Z,46.51
2022-08-25T04:29:00.139Z,46.47
2022-08-25T04:30:01.795Z,46.69
2022-08-25T04:31:05.766Z,46.53
2022-08-25T04:32:08.100Z,46.77
2022-08-25T04:33:09.730Z,46.69
2022-08-25T04:34:14.784Z,46.85
2022-08-25T04:35:32.418Z,46.89
2022-08-25T04:36:33.963Z,46.92
2022-08-25T04:37:35.466Z,46.79
2022-08-25T04:38:37.414Z,46.69
2022-08-25T04:39:38.943Z,46.71
2022-08-25T04:40:40.535Z,46.86
2022-08-25T04:41:42.050Z,46.67
2022-08-25T04:42:44.968Z,46.44
2022-08-25T04:43:49.815Z,46.58
2022-08-25T04:44:51.327Z,46.71
2022-08-25T04:45:52.971Z,46.64
2022-08-25T04:46:54.547Z,46.64
2022-08-25T04:48:00.772Z,46.78
2022-08-25T04:49:02.583Z,46.86
2022-08-25T04:50:04.386Z,46.75
2022-08-25T04:51:06.296Z,46.91
2022-08-25T04:52:07.845Z,47.18
2022-08-25T04:53:16.261Z,47.18
2022-08-25T04:54:21.527Z,47.14
2022-08-25T04:55:23.970Z,47.22
2022-08-25T04:56:26.130Z,47.25
2022-08-25T04:57:28.281Z,47.42
2022-08-25T04:58:29.814Z,47.33
2022-08-25T04:59:31.334Z,47.57
2022-08-25T05:00:34.337Z,47.67
2022-08-25T05:01:35.945Z,47.55
2022-08-25T05:02:37.755Z,47.76
2022-08-25T05:03:39.286Z,47.65
2022-08-25T05:04:40.917Z,47.57
2022-08-25T05:05:42.492Z,47.64
2022-08-25T05:06:43.973Z,48.12
2022-08-25T05:07:47.691Z,48.03
2022-08-25T05:08:49.625Z,47.89
2022-08-25T05:09:51.456Z,48.24
2022-08-25T05:10:54.572Z,48.21
2022-08-25T05:11:56.828Z,48.24
2022-08-25T05:12:58.794Z,48.29
2022-08-25T05:14:00.608Z,48.17
2022-08-25T05:15:22.112Z,48.22
2022-08-25T05:16:23.985Z,48.25
2022-08-25T05:17:25.598Z,48.17
2022-08-25T05:18:28.698Z,48.13
2022-08-25T05:19:30.268Z,48.35
2022-08-25T05:20:31.821Z,48.19
2022-08-25T05:21:33.493Z,48.34
2022-08-25T05:22:35.002Z,48.52
2022-08-25T05:23:36.709Z,48.45
2022-08-25T05:24:38.258Z,48.26
2022-08-25T05:25:40.202Z,48.56
2022-08-25T05:26:41.989Z,48.48
2022-08-25T05:27:43.860Z,48.53
2022-08-25T05:28:45.339Z,48.39
2022-08-25T05:29:47.004Z,48.72
2022-08-25T05:30:51.207Z,48.64
2022-08-25T05:31:53.650Z,48.51
2022-08-25T05:32:55.270Z,48.73
2022-08-25T05:33:57.213Z,48.69
2022-08-25T05:34:59.403Z,48.66
2022-08-25T05:36:01.003Z,48.68
2022-08-25T05:37:04.510Z,48.76
2022-08-25T05:38:06.191Z,48.69
2022-08-25T05:39:07.828Z,48.84
2022-08-25T05:40:10.311Z,48.72
2022-08-25T05:41:13.235Z,49.01
2022-08-25T05:42:14.811Z,48.98
2022-08-25T05:43:16.405Z,48.86
2022-08-25T05:44:20.940Z,48.82
2022-08-25T05:45:22.976Z,48.96
2022-08-25T05:46:24.674Z,48.97
2022-08-25T05:47:26.223Z,49.08
2022-08-25T05:48:27.761Z,48.95
2022-08-25T05:49:29.248Z,49.01
2022-08-25T05:50:30.767Z,49.29
2022-08-25T05:51:32.296Z,49.22
2022-08-25T05:52:33.813Z,49.10
2022-08-25T05:53:35.446Z,49.09
2022-08-25T05:54:36.931Z,49.08
2022-08-25T05:55:38.457Z,49.29
2022-08-25T05:56:40.266Z,49.28
2022-08-25T05:57:41.818Z,49.33
2022-08-25T05:58:43.339Z,49.15
2022-08-25T05:59:44.822Z,49.35
2022-08-25T06:00:46.453Z,49.53
2022-08-25T06:02:06.504Z,49.56
2022-08-25T06:03:08.062Z,49.45
2022-08-25T06:04:09.673Z,49.56
2022-08-25T06:05:11.731Z,49.69
2022-08-25T06:06:13.487Z,49.43
2022-08-25T06:07:15.102Z,49.72
2022-08-25T06:08:16.734Z,49.57
2022-08-25T06:09:18.211Z,49.86
2022-08-25T06:10:20.215Z,49.90
2022-08-25T06:11:21.684Z,49.92
2022-08-25T06:12:23.288Z,49.93
2022-08-25T06:13:26.942Z,50.10
2022-08-25T06:14:30.432Z,50.40
2022-08-25T06:15:32.123Z,49.93
2022-08-25T06:16:33.708Z,50.27
2022-08-25T06:17:35.428Z,50.12
2022-08-25T06:18:36.990Z,50.21
2022-08-25T06:19:39.746Z,50.42
2022-08-25T06:20:42.930Z,50.17
2022-08-25T06:21:44.461Z,50.12
2022-08-25T06:22:46.080Z,50.09
2022-08-25T06:23:49.232Z,50.14
2022-08-25T06:24:50.751Z,50.40
2022-08-25T06:25:52.534Z,50.17
2022-08-25T06:26:54.033Z,50.16
2022-08-25T06:27:55.586Z,50.15
2022-08-25T06:28:57.104Z,49.97
2022-08-25T06:29:58.638Z,50.13
2022-08-25T06:31:06.492Z,50.22
2022-08-25T06:32:08.879Z,49.85
2022-08-25T06:33:10.467Z,49.92
2022-08-25T06:34:12.858Z,49.93
2022-08-25T06:35:16.424Z,50.03
2022-08-25T06:36:19.140Z,50.22
2022-08-25T06:37:25.091Z,50.07
2022-08-25T06:38:27.104Z,50.17
2022-08-25T06:39:28.735Z,50.01
2022-08-25T06:40:30.252Z,49.76
2022-08-25T06:41:36.656Z,49.85
2022-08-25T06:42:38.740Z,50.09
2022-08-25T06:43:47.348Z,50.23
2022-08-25T06:44:50.626Z,50.24
2022-08-25T06:45:52.155Z,49.89
2022-08-25T06:46:53.881Z,49.84
2022-08-25T06:47:57.193Z,49.99
2022-08-25T06:48:59.104Z,50.02
2022-08-25T06:50:00.579Z,49.72
2022-08-25T06:51:05.342Z,49.70
2022-08-25T06:52:06.957Z,49.80
2022-08-25T06:53:08.493Z,49.82
2022-08-25T06:54:13.132Z,49.56
2022-08-25T06:55:15.342Z,49.53
2022-08-25T06:56:17.241Z,49.62
2022-08-25T06:57:18.752Z,49.59
2022-08-25T06:58:20.330Z,49.51
2022-08-25T06:59:21.940Z,49.71
2022-08-25T07:00:23.476Z,49.43
2022-08-25T07:01:32.415Z,49.51
2022-08-25T07:02:35.335Z,49.38
2022-08-25T07:03:37.211Z,49.79
2022-08-25T07:04:38.915Z,49.81
2022-08-25T07:05:43.768Z,49.74
2022-08-25T07:06:45.732Z,49.93
2022-08-25T07:07:47.451Z,49.94
2022-08-25T07:08:48.991Z,49.50
2022-08-25T07:09:50.507Z,49.53
2022-08-25T07:10:52.103Z,49.40
2022-08-25T07:11:54.207Z,49.28
2022-08-25T07:12:55.990Z,49.47
2022-08-25T07:13:57.654Z,49.60
2022-08-25T07:15:18.980Z,50.03
2022-08-25T07:16:21.058Z,49.86
2022-08-25T07:17:23.599Z,49.79
2022-08-25T07:18:26.946Z,49.77
2022-08-25T07:19:28.535Z,49.42
2022-08-25T07:20:31.408Z,49.34
2022-08-25T07:21:35.646Z,49.23
2022-08-25T07:22:37.854Z,49.61
2022-08-25T07:23:39.944Z,49.11
2022-08-25T07:24:41.658Z,48.92
2022-08-25T07:25:43.130Z,49.02
2022-08-25T07:26:46.580Z,49.31
2022-08-25T07:27:48.099Z,49.51
2022-08-25T07:28:50.723Z,49.39
2022-08-25T07:29:53.999Z,49.20
2022-08-25T07:31:00.848Z,48.74
2022-08-25T07:32:02.770Z,49.14
2022-08-25T07:33:06.497Z,49.29
2022-08-25T07:34:26.967Z,49.51
2022-08-25T07:35:37.448Z,48.82
2022-08-25T07:36:39.434Z,48.65
2022-08-25T07:37:49.154Z,48.83
2022-08-25T07:38:51.419Z,48.60
2022-08-25T07:39:53.022Z,48.33
2022-08-25T07:41:00.802Z,48.62
2022-08-25T07:42:02.400Z,49.11
2022-08-25T07:43:05.060Z,49.15
2022-08-25T07:44:08.970Z,48.69
2022-08-25T07:45:11.292Z,48.49
2022-08-25T07:46:13.338Z,48.50
2022-08-25T07:47:15.983Z,48.84
2022-08-25T07:48:19.760Z,48.68
2022-08-25T07:49:23.144Z,47.83
2022-08-25T07:50:25.244Z,48.41
2022-08-25T07:52:33.527Z,48.06
2022-08-25T07:53:35.115Z,48.22
2022-08-25T07:54:38.230Z,48.01
2022-08-25T07:55:41.431Z,48.10
2022-08-25T07:56:44.171Z,47.93
2022-08-25T07:57:48.950Z,48.44
2022-08-25T07:58:56.124Z,48.68
2022-08-25T07:59:58.846Z,48.37
2022-08-25T08:01:00.357Z,48.14
2022-08-25T08:02:02.051Z,48.03
2022-08-25T08:03:04.419Z,48.09
2022-08-25T08:04:06.010Z,47.72
2022-08-25T08:05:09.699Z,48.26
2022-08-25T08:06:12.031Z,48.04
2022-08-25T08:07:13.714Z,48.24
2022-08-25T08:08:22.022Z,47.96
2022-08-25T08:09:31.131Z,47.99
2022-08-25T08:10:53.818Z,48.11
2022-08-25T08:11:58.634Z,47.64
2022-08-25T08:13:00.533Z,47.59
2022-08-25T08:14:02.766Z,47.68
2022-08-25T08:15:04.548Z,47.74
2022-08-25T08:16:13.291Z,47.83
2022-08-25T08:17:15.032Z,47.54
2022-08-25T08:18:18.376Z,47.42
2022-08-25T08:19:22.993Z,47.27
2022-08-25T08:20:24.880Z,47.23
2022-08-25T08:21:30.868Z,46.82
2022-08-25T08:22:33.014Z,47.42
2022-08-25T08:23:34.581Z,47.18
2022-08-25T08:24:44.705Z,46.87
2022-08-25T08:25:56.732Z,47.09
2022-08-25T08:26:59.411Z,46.64
2022-08-25T08:28:01.015Z,46.81
2022-08-25T08:29:02.803Z,46.85
2022-08-25T08:30:04.862Z,47.05
2022-08-25T08:31:06.529Z,46.64
2022-08-25T08:32:13.484Z,46.38
2022-08-25T08:33:15.043Z,46.28
2022-08-25T08:34:16.535Z,46.73
2022-08-25T08:35:18.959Z,46.58
2022-08-25T08:36:21.469Z,46.33
2022-08-25T08:37:28.118Z,46.75
2022-08-25T08:38:29.769Z,45.71
2022-08-25T08:39:31.268Z,45.82
2022-08-25T08:40:34.719Z,46.16
2022-08-25T08:42:11.264Z,46.18
2022-08-25T08:43:18.825Z,45.80
2022-08-25T08:44:29.022Z,45.83
2022-08-25T08:45:31.251Z,45.39
2022-08-25T08:46:43.695Z,45.50
2022-08-25T08:48:20.515Z,45.12
2022-08-25T08:49:28.621Z,45.47
2022-08-25T08:50:33.801Z,45.04
2022-08-25T08:51:36.195Z,44.56
2022-08-25T08:52:38.264Z,44.36
2022-08-25T08:54:00.092Z,44.65
2022-08-25T08:55:02.687Z,44.73
2022-08-25T08:56:11.626Z,44.72
2022-08-25T08:57:16.665Z,44.06
2022-08-25T08:58:18.882Z,44.05
2022-08-25T08:59:28.896Z,44.39
2022-08-25T09:00:32.235Z,44.08
2022-08-25T09:01:36.102Z,44.30
2022-08-25T09:02:51.997Z,44.79
2022-08-25T09:03:58.919Z,44.08
2022-08-25T09:05:04.669Z,44.15
2022-08-25T09:06:26.477Z,44.63
2022-08-25T09:07:43.214Z,44.31
2022-08-25T09:08:59.068Z,44.30
2022-08-25T09:10:00.766Z,43.49
2022-08-25T09:11:20.808Z,43.29
2022-08-25T09:12:27.752Z,43.67
2022-08-25T09:13:34.118Z,43.94
2022-08-25T09:15:02.786Z,44.00
2022-08-25T09:16:43.790Z,43.37
2022-08-25T09:17:57.959Z,42.96
2022-08-25T09:19:05.627Z,42.48
2022-08-25T09:20:25.814Z,42.94
2022-08-25T09:21:33.953Z,42.44
2022-08-25T09:22:53.764Z,42.62
2022-08-25T09:24:04.095Z,42.25
2022-08-25T09:25:21.957Z,42.18
2022-08-25T09:26:44.761Z,41.13
2022-08-25T09:27:46.455Z,41.00
2022-08-25T09:28:52.323Z,41.49
2022-08-25T09:30:05.353Z,41.59
2022-08-25T09:31:13.839Z,41.22
2022-08-25T09:32:15.373Z,41.21
2022-08-25T09:33:26.259Z,40.93
2022-08-25T09:34:31.046Z,40.40
2022-08-25T09:35:33.535Z,40.37
2022-08-25T09:36:37.853Z,40.53
2022-08-25T09:37:39.504Z,40.67
2022-08-25T09:38:41.341Z,40.75
2022-08-25T09:39:43.223Z,40.55
2022-08-25T09:40:46.060Z,40.16
2022-08-25T09:41:52.106Z,40.09
2022-08-25T09:42:57.649Z,40.37
2022-08-25T09:43:59.644Z,40.28
2022-08-25T09:45:01.179Z,39.85
2022-08-25T09:46:03.897Z,39.65
2022-08-25T09:47:08.282Z,39.92
2022-08-25T09:48:25.359Z,39.48
2022-08-25T09:49:30.863Z,39.24
2022-08-25T09:50:35.064Z,38.98
2022-08-25T09:51:42.833Z,39.07
2022-08-25T09:52:45.867Z,38.95
2022-08-25T09:53:56.868Z,38.69
2022-08-25T09:55:21.632Z,39.01
2022-08-25T09:56:27.264Z,38.49
2022-08-25T09:57:29.164Z,38.39
2022-08-25T09:58:30.798Z,38.46
2022-08-25T09:59:35.735Z,37.93
2022-08-25T10:00:38.199Z,38.05
2022-08-25T10:01:47.567Z,38.23
2022-08-25T10:03:06.950Z,36.64
2022-08-25T10:04:17.715Z,37.27
2022-08-25T10:05:23.326Z,37.77
2022-08-25T10:06:25.446Z,37.35
2022-08-25T10:07:32.277Z,37.11
2022-08-25T10:08:36.406Z,36.96
2022-08-25T10:09:39.712Z,37.21
2022-08-25T10:10:46.349Z,36.89
2022-08-25T10:11:48.764Z,36.41
2022-08-25T10:12:51.217Z,36.73
2022-08-25T10:13:56.398Z,36.73
2022-08-25T10:14:58.003Z,36.31
2022-08-25T10:16:20.579Z,36.53
2022-08-25T10:17:30.038Z,37.10
2022-08-25T10:18:31.605Z,36.77
2022-08-25T10:19:33.737Z,36.39
2022-08-25T10:20:35.444Z,36.70
2022-08-25T10:21:38.253Z,36.32
2022-08-25T10:22:40.286Z,35.72
2022-08-25T10:23:44.642Z,36.19
2022-08-25T10:24:46.551Z,36.20
2022-08-25T10:25:59.271Z,36.01
2022-08-25T10:27:13.550Z,35.79
2022-08-25T10:28:25.893Z,35.24
2022-08-25T10:29:45.711Z,35.46
2022-08-25T10:30:53.472Z,35.16
2022-08-25T10:31:56.758Z,35.90
2022-08-25T10:33:07.872Z,35.96
2022-08-25T10:34:12.307Z,35.98
2022-08-25T10:35:17.609Z,35.36
2022-08-25T10:36:41.305Z,35.80
2022-08-25T10:38:07.360Z,35.76
2022-08-25T10:39:34.234Z,35.67
2022-08-25T10:40:37.919Z,36.04
2022-08-25T10:41:53.426Z,35.96
2022-08-25T10:43:08.426Z,35.63
2022-08-25T10:44:34.656Z,35.71
2022-08-25T10:45:59.293Z,36.05
2022-08-25T10:47:40.375Z,35.91
2022-08-25T10:49:02.335Z,35.58
2022-08-25T10:50:14.832Z,35.45
2022-08-25T10:51:25.511Z,35.67
2022-08-25T10:52:47.830Z,35.60
2022-08-25T10:54:08.308Z,35.57
2022-08-25T10:55:20.336Z,35.78
2022-08-25T10:56:23.535Z,35.41
2022-08-25T10:57:25.132Z,35.33
2022-08-25T10:58:45.785Z,35.13
2022-08-25T10:59:53.410Z,35.28
2022-08-25T11:01:06.915Z,35.35
2022-08-25T11:02:11.386Z,35.91
2022-08-25T11:03:19.060Z,35.66
2022-08-25T11:04:29.791Z,36.32
2022-08-25T11:05:40.220Z,35.63
2022-08-25T11:06:51.399Z,35.58
2022-08-25T11:08:06.200Z,34.84
2022-08-25T11:09:11.126Z,35.14
2022-08-25T11:10:17.789Z,35.00
2022-08-25T11:11:25.713Z,35.10
2022-08-25T11:12:30.270Z,35.72
2022-08-25T11:13:37.958Z,35.44
2022-08-25T11:14:59.290Z,35.51
2022-08-25T11:16:17.188Z,35.74
2022-08-25T11:17:20.831Z,35.30
2022-08-25T11:18:22.897Z,35.50
2022-08-25T11:19:33.682Z,35.49
2022-08-25T11:20:41.372Z,35.29
2022-08-25T11:21:52.847Z,35.27
2022-08-25T11:23:04.576Z,35.44
2022-08-25T11:24:12.398Z,35.59
2022-08-25T11:25:21.588Z,34.76
2022-08-25T11:26:31.947Z,35.21
2022-08-25T11:27:49.116Z,35.33
2022-08-25T11:29:11.377Z,35.20
2022-08-25T11:30:14.561Z,35.13
2022-08-25T11:31:16.127Z,35.28
2022-08-25T11:32:18.774Z,35.49
2022-08-25T11:33:20.370Z,36.14
2022-08-25T11:34:24.257Z,35.53
2022-08-25T11:35:42.462Z,35.47
2022-08-25T11:36:49.205Z,35.32
2022-08-25T11:37:57.802Z,35.20
2022-08-25T11:39:37.677Z,35.20
2022-08-25T11:40:39.210Z,34.83
2022-08-25T11:41:49.152Z,34.82
2022-08-25T11:42:57.945Z,35.13
2022-08-25T11:44:02.273Z,35.01
2022-08-25T11:45:08.828Z,35.18
2022-08-25T11:46:27.810Z,35.80
2022-08-25T11:47:29.490Z,35.38
2022-08-25T11:48:42.764Z,35.59
2022-08-25T11:49:53.682Z,35.17
2022-08-25T11:50:55.279Z,35.03
2022-08-25T11:52:02.882Z,35.43
2022-08-25T11:53:26.540Z,35.23
2022-08-25T11:54:34.181Z,35.03
2022-08-25T11:55:51.998Z,34.58
2022-08-25T11:57:04.203Z,34.05
2022-08-25T11:58:24.218Z,34.82
2022-08-25T11:59:46.222Z,34.98
2022-08-25T12:00:48.123Z,34.34
2022-08-25T12:01:55.786Z,35.14
2022-08-25T12:03:01.307Z,34.63
2022-08-25T12:04:26.778Z,33.66
2022-08-25T12:05:32.378Z,33.48
2022-08-25T12:06:36.718Z,34.06
2022-08-25T12:07:47.387Z,33.81
2022-08-25T12:09:01.059Z,33.96
2022-08-25T12:10:05.762Z,34.30
2022-08-25T12:11:11.115Z,34.15
2022-08-25T12:12:31.374Z,34.02
2022-08-25T12:13:43.002Z,33.37
2022-08-25T12:14:45.491Z,33.72
2022-08-25T12:15:47.115Z,33.52
2022-08-25T12:16:51.480Z,33.13
2022-08-25T12:18:08.934Z,33.14
2022-08-25T12:19:30.242Z,33.32
2022-08-25T12:20:51.721Z,33.13
2022-08-25T12:21:54.617Z,32.61
2022-08-25T12:22:56.509Z,33.17
2022-08-25T12:24:04.913Z,33.36
2022-08-25T12:25:11.569Z,33.30
2022-08-25T12:26:18.879Z,33.85
2022-08-25T12:27:23.179Z,33.71
2022-08-25T12:28:40.478Z,34.04
2022-08-25T12:29:47.319Z,33.72
2022-08-25T12:30:50.712Z,33.23
2022-08-25T12:32:03.180Z,33.29
2022-08-25T12:33:25.198Z,33.01
2022-08-25T12:34:46.410Z,33.08
2022-08-25T12:35:53.803Z,33.17
2022-08-25T12:36:58.371Z,33.40
2022-08-25T12:38:02.971Z,33.33
2022-08-25T12:39:19.295Z,33.20
2022-08-25T12:40:35.574Z,33.43
2022-08-25T12:41:37.351Z,33.24
2022-08-25T12:42:39.745Z,32.97
2022-08-25T12:43:44.947Z,32.97
2022-08-25T12:44:47.929Z,33.07
2022-08-25T12:45:51.614Z,32.91
2022-08-25T12:47:08.118Z,32.78
2022-08-25T12:48:27.791Z,32.69
2022-08-25T12:49:29.943Z,32.86
2022-08-25T12:50:41.328Z,32.83
2022-08-25T12:51:48.689Z,32.81
2022-08-25T12:52:50.409Z,32.80
2022-08-25T12:53:53.394Z,32.88
2022-08-25T12:54:54.920Z,32.97
2022-08-25T12:55:59.905Z,32.86
2022-08-25T12:57:03.182Z,33.01
2022-08-25T12:58:06.675Z,32.72
2022-08-25T12:59:12.779Z,32.81
2022-08-25T13:01:32.842Z,33.55
2022-08-25T13:02:52.193Z,33.50
2022-08-25T13:04:12.471Z,33.57
2022-08-25T13:05:37.623Z,33.34
2022-08-25T13:06:41.904Z,33.24
2022-08-25T13:07:55.280Z,32.96
2022-08-25T13:08:56.951Z,32.72
2022-08-25T13:10:07.688Z,32.93
2022-08-25T13:11:10.843Z,32.97
2022-08-25T13:12:15.006Z,33.31
2022-08-25T13:13:34.387Z,33.22
2022-08-25T13:14:40.489Z,33.27
2022-08-25T13:15:46.938Z,33.03
2022-08-25T13:16:54.052Z,32.39
2022-08-25T13:17:55.563Z,32.30
2022-08-25T13:18:59.280Z,32.19
2022-08-25T13:20:19.209Z,32.29
2022-08-25T13:21:24.198Z,32.68
2022-08-25T13:22:25.899Z,32.56
2022-08-25T13:23:29.201Z,31.59
2022-08-25T13:24:40.585Z,31.80
2022-08-25T13:25:46.767Z,31.86
2022-08-25T13:26:52.340Z,31.56
2022-08-25T13:27:57.289Z,31.83
2022-08-25T13:29:20.145Z,31.82
2022-08-25T13:30:24.369Z,32.17
2022-08-25T13:31:29.033Z,32.00
2022-08-25T13:32:35.407Z,31.86
2022-08-25T13:33:37.386Z,31.83
2022-08-25T13:34:42.529Z,31.76
2022-08-25T13:35:47.938Z,31.86
2022-08-25T13:37:08.069Z,31.83
2022-08-25T13:38:13.387Z,31.99
2022-08-25T13:39:15.980Z,32.23
2022-08-25T13:40:27.845Z,32.17
2022-08-25T13:41:29.934Z,32.17
2022-08-25T13:42:36.588Z,32.19
2022-08-25T13:43:38.214Z,32.60
2022-08-25T13:44:40.035Z,32.46
2022-08-25T13:45:53.382Z,32.81
2022-08-25T13:47:13.738Z,33.08
2022-08-25T13:48:21.139Z,32.65
2022-08-25T13:49:25.330Z,32.18
2022-08-25T13:50:27.115Z,32.06
2022-08-25T13:51:31.351Z,32.19
2022-08-25T13:52:33.447Z,32.35
2022-08-25T13:53:35.044Z,32.49
2022-08-25T13:54:41.099Z,32.17
2022-08-25T13:55:53.171Z,32.11
2022-08-25T13:56:55.138Z,32.12
2022-08-25T13:57:57.799Z,32.41
2022-08-25T13:59:00.038Z,32.28
2022-08-25T14:00:04.139Z,32.57
2022-08-25T14:01:23.048Z,32.18
2022-08-25T14:02:45.194Z,32.27
2022-08-25T14:03:51.400Z,32.37